sensor_id;sensor_type;location;lat;lon;timestamp;P1;durP1;ratioP1;P2;durP2;ratioP2
59468;SDS011;45277;52.768;18.262;2023-05-21T00:01:28;21.02;;;15.50;;
59468;SDS011;45277;52.768;18.262;2023-05-21T00:02:59;20.30;;;15.90;;
59468;SDS011;45277;52.768;18.262;2023-05-21T00:04:31;18.23;;;15.57;;
59468;SDS011;45277;52.768;18.262;2023-05-21T00:06:03;22.55;;;15.82;;
59468;SDS011;45277;52.768;18.262;2023-05-21T00:07:36;18.95;;;15.70;;
59468;SDS011;45277;52.768;18.262;2023-05-21T00:09:07;19.85;;;15.75;;
59468;SDS011;45277;52.768;18.262;2023-05-21T00:10:39;22.10;;;15.35;;
59468;SDS011;45277;52.768;18.262;2023-05-21T00:12:10;21.85;;;15.70;;
59468;SDS011;45277;52.768;18.262;2023-05-21T00:13:41;20.60;;;15.85;;
59468;SDS011;45277;52.768;18.262;2023-05-21T00:15:13;22.58;;;16.27;;
59468;SDS011;45277;52.768;18.262;2023-05-21T00:16:44;17.90;;;15.25;;
59468;SDS011;45277;52.768;18.262;2023-05-21T00:18:16;22.10;;;16.05;;
59468;SDS011;45277;52.768;18.262;2023-05-21T00:19:48;21.58;;;16.20;;
59468;SDS011;45277;52.768;18.262;2023-05-21T00:21:19;17.13;;;15.23;;
59468;SDS011;45277;52.768;18.262;2023-05-21T00:22:55;20.25;;;16.13;;
59468;SDS011;45277;52.768;18.262;2023-05-21T00:24:27;19.30;;;15.82;;
59468;SDS011;45277;52.768;18.262;2023-05-21T00:25:58;24.85;;;15.75;;
59468;SDS011;45277;52.768;18.262;2023-05-21T00:27:30;20.65;;;16.58;;
59468;SDS011;45277;52.768;18.262;2023-05-21T00:29:02;23.85;;;16.38;;
59468;SDS011;45277;52.768;18.262;2023-05-21T00:30:33;21.15;;;16.15;;
59468;SDS011;45277;52.768;18.262;2023-05-21T00:32:05;20.23;;;16.27;;
59468;SDS011;45277;52.768;18.262;2023-05-21T00:33:37;22.20;;;16.92;;
59468;SDS011;45277;52.768;18.262;2023-05-21T00:35:08;19.38;;;15.35;;
59468;SDS011;45277;52.768;18.262;2023-05-21T00:36:39;21.17;;;16.27;;
59468;SDS011;45277;52.768;18.262;2023-05-21T00:38:15;22.05;;;16.25;;
59468;SDS011;45277;52.768;18.262;2023-05-21T00:39:47;26.92;;;15.57;;
59468;SDS011;45277;52.768;18.262;2023-05-21T00:41:18;22.05;;;16.67;;
59468;SDS011;45277;52.768;18.262;2023-05-21T00:42:52;20.13;;;16.23;;
59468;SDS011;45277;52.768;18.262;2023-05-21T00:44:26;18.50;;;15.50;;
59468;SDS011;45277;52.768;18.262;2023-05-21T00:46:03;22.20;;;15.45;;
59468;SDS011;45277;52.768;18.262;2023-05-21T00:47:35;23.55;;;16.40;;
59468;SDS011;45277;52.768;18.262;2023-05-21T00:49:07;22.83;;;15.98;;
59468;SDS011;45277;52.768;18.262;2023-05-21T00:50:38;22.60;;;15.05;;
59468;SDS011;45277;52.768;18.262;2023-05-21T00:52:10;23.35;;;15.27;;
59468;SDS011;45277;52.768;18.262;2023-05-21T00:53:42;19.25;;;14.77;;
59468;SDS011;45277;52.768;18.262;2023-05-21T00:55:15;21.63;;;15.50;;
59468;SDS011;45277;52.768;18.262;2023-05-21T00:56:47;19.83;;;14.63;;
59468;SDS011;45277;52.768;18.262;2023-05-21T00:58:18;19.67;;;14.95;;
59468;SDS011;45277;52.768;18.262;2023-05-21T00:59:50;20.40;;;14.10;;
59468;SDS011;45277;52.768;18.262;2023-05-21T01:01:23;18.27;;;15.40;;
59468;SDS011;45277;52.768;18.262;2023-05-21T01:03:03;16.45;;;13.98;;
59468;SDS011;45277;52.768;18.262;2023-05-21T01:04:35;18.33;;;14.10;;
59468;SDS011;45277;52.768;18.262;2023-05-21T01:06:07;16.42;;;14.35;;
59468;SDS011;45277;52.768;18.262;2023-05-21T01:07:40;18.92;;;14.27;;
59468;SDS011;45277;52.768;18.262;2023-05-21T01:09:11;17.58;;;15.45;;
59468;SDS011;45277;52.768;18.262;2023-05-21T01:10:43;21.00;;;14.95;;
59468;SDS011;45277;52.768;18.262;2023-05-21T01:12:14;20.17;;;15.63;;
59468;SDS011;45277;52.768;18.262;2023-05-21T01:13:46;18.88;;;14.70;;
59468;SDS011;45277;52.768;18.262;2023-05-21T01:15:20;19.23;;;15.02;;
59468;SDS011;45277;52.768;18.262;2023-05-21T01:16:51;19.77;;;14.77;;
59468;SDS011;45277;52.768;18.262;2023-05-21T01:18:23;19.67;;;14.40;;
59468;SDS011;45277;52.768;18.262;2023-05-21T01:19:56;21.15;;;14.48;;
59468;SDS011;45277;52.768;18.262;2023-05-21T01:21:28;23.42;;;15.10;;
59468;SDS011;45277;52.768;18.262;2023-05-21T01:22:59;19.90;;;15.07;;
59468;SDS011;45277;52.768;18.262;2023-05-21T01:24:33;25.67;;;15.75;;
59468;SDS011;45277;52.768;18.262;2023-05-21T01:26:04;19.50;;;14.88;;
59468;SDS011;45277;52.768;18.262;2023-05-21T01:27:36;19.35;;;15.07;;
59468;SDS011;45277;52.768;18.262;2023-05-21T01:29:08;21.00;;;15.38;;
59468;SDS011;45277;52.768;18.262;2023-05-21T01:30:43;21.80;;;15.13;;
59468;SDS011;45277;52.768;18.262;2023-05-21T01:33:55;18.95;;;15.55;;
59468;SDS011;45277;52.768;18.262;2023-05-21T01:35:31;24.80;;;16.25;;
59468;SDS011;45277;52.768;18.262;2023-05-21T01:37:19;22.58;;;15.25;;
59468;SDS011;45277;52.768;18.262;2023-05-21T01:39:01;21.08;;;16.45;;
59468;SDS011;45277;52.768;18.262;2023-05-21T01:40:52;21.50;;;15.50;;
59468;SDS011;45277;52.768;18.262;2023-05-21T01:42:28;20.65;;;15.68;;
59468;SDS011;45277;52.768;18.262;2023-05-21T01:44:02;21.65;;;16.38;;
59468;SDS011;45277;52.768;18.262;2023-05-21T01:45:38;22.35;;;16.05;;
59468;SDS011;45277;52.768;18.262;2023-05-21T01:47:11;25.90;;;17.08;;
59468;SDS011;45277;52.768;18.262;2023-05-21T01:48:43;21.50;;;16.17;;
59468;SDS011;45277;52.768;18.262;2023-05-21T01:50:16;20.77;;;15.63;;
59468;SDS011;45277;52.768;18.262;2023-05-21T01:51:48;24.65;;;16.05;;
59468;SDS011;45277;52.768;18.262;2023-05-21T01:53:20;19.88;;;14.98;;
59468;SDS011;45277;52.768;18.262;2023-05-21T01:54:52;18.98;;;15.30;;
59468;SDS011;45277;52.768;18.262;2023-05-21T01:56:23;20.77;;;15.85;;
59468;SDS011;45277;52.768;18.262;2023-05-21T01:57:55;23.38;;;16.48;;
59468;SDS011;45277;52.768;18.262;2023-05-21T01:59:28;20.70;;;16.00;;
59468;SDS011;45277;52.768;18.262;2023-05-21T02:01:00;24.52;;;16.85;;
59468;SDS011;45277;52.768;18.262;2023-05-21T02:02:33;24.08;;;16.80;;
59468;SDS011;45277;52.768;18.262;2023-05-21T02:04:04;24.58;;;16.52;;
59468;SDS011;45277;52.768;18.262;2023-05-21T02:05:36;26.13;;;17.13;;
59468;SDS011;45277;52.768;18.262;2023-05-21T02:07:07;23.92;;;16.92;;
59468;SDS011;45277;52.768;18.262;2023-05-21T02:08:39;27.52;;;17.02;;
59468;SDS011;45277;52.768;18.262;2023-05-21T02:10:11;26.50;;;17.05;;
59468;SDS011;45277;52.768;18.262;2023-05-21T02:11:42;27.70;;;17.73;;
59468;SDS011;45277;52.768;18.262;2023-05-21T02:13:14;26.73;;;18.00;;
59468;SDS011;45277;52.768;18.262;2023-05-21T02:14:45;24.92;;;17.30;;
59468;SDS011;45277;52.768;18.262;2023-05-21T02:16:20;24.75;;;16.80;;
59468;SDS011;45277;52.768;18.262;2023-05-21T02:17:51;27.00;;;17.30;;
59468;SDS011;45277;52.768;18.262;2023-05-21T02:19:23;24.95;;;16.27;;
59468;SDS011;45277;52.768;18.262;2023-05-21T02:20:54;24.27;;;16.35;;
59468;SDS011;45277;52.768;18.262;2023-05-21T02:22:26;23.35;;;15.93;;
59468;SDS011;45277;52.768;18.262;2023-05-21T02:23:57;26.63;;;18.50;;
59468;SDS011;45277;52.768;18.262;2023-05-21T02:25:29;24.77;;;16.95;;
59468;SDS011;45277;52.768;18.262;2023-05-21T02:27:00;24.15;;;16.75;;
59468;SDS011;45277;52.768;18.262;2023-05-21T02:28:32;27.02;;;16.98;;
59468;SDS011;45277;52.768;18.262;2023-05-21T02:30:06;26.00;;;17.25;;
59468;SDS011;45277;52.768;18.262;2023-05-21T02:31:39;25.58;;;16.52;;
59468;SDS011;45277;52.768;18.262;2023-05-21T02:33:10;23.48;;;16.75;;
59468;SDS011;45277;52.768;18.262;2023-05-21T02:34:44;25.02;;;17.15;;
59468;SDS011;45277;52.768;18.262;2023-05-21T02:36:16;23.75;;;17.00;;
59468;SDS011;45277;52.768;18.262;2023-05-21T02:37:48;22.60;;;16.20;;
59468;SDS011;45277;52.768;18.262;2023-05-21T02:39:19;27.55;;;17.20;;
59468;SDS011;45277;52.768;18.262;2023-05-21T02:40:51;29.52;;;17.10;;
59468;SDS011;45277;52.768;18.262;2023-05-21T02:42:22;26.42;;;16.25;;
59468;SDS011;45277;52.768;18.262;2023-05-21T02:43:54;26.30;;;17.30;;
59468;SDS011;45277;52.768;18.262;2023-05-21T02:45:25;26.63;;;16.98;;
59468;SDS011;45277;52.768;18.262;2023-05-21T02:46:58;25.27;;;17.02;;
59468;SDS011;45277;52.768;18.262;2023-05-21T02:48:30;28.05;;;17.10;;
59468;SDS011;45277;52.768;18.262;2023-05-21T02:50:01;27.92;;;17.23;;
59468;SDS011;45277;52.768;18.262;2023-05-21T02:51:32;25.98;;;16.67;;
59468;SDS011;45277;52.768;18.262;2023-05-21T02:53:04;23.45;;;16.42;;
59468;SDS011;45277;52.768;18.262;2023-05-21T02:54:35;21.13;;;15.38;;
59468;SDS011;45277;52.768;18.262;2023-05-21T02:56:07;22.20;;;15.88;;
59468;SDS011;45277;52.768;18.262;2023-05-21T02:57:38;22.92;;;15.00;;
59468;SDS011;45277;52.768;18.262;2023-05-21T02:59:10;22.95;;;16.38;;
59468;SDS011;45277;52.768;18.262;2023-05-21T03:00:41;25.40;;;16.80;;
59468;SDS011;45277;52.768;18.262;2023-05-21T03:02:13;27.17;;;15.70;;
59468;SDS011;45277;52.768;18.262;2023-05-21T03:03:44;23.85;;;16.17;;
59468;SDS011;45277;52.768;18.262;2023-05-21T03:05:15;23.70;;;16.20;;
59468;SDS011;45277;52.768;18.262;2023-05-21T03:06:50;27.23;;;16.42;;
59468;SDS011;45277;52.768;18.262;2023-05-21T03:08:24;24.10;;;15.35;;
59468;SDS011;45277;52.768;18.262;2023-05-21T03:09:56;25.38;;;15.63;;
59468;SDS011;45277;52.768;18.262;2023-05-21T03:11:27;22.95;;;16.02;;
59468;SDS011;45277;52.768;18.262;2023-05-21T03:12:59;25.85;;;15.77;;
59468;SDS011;45277;52.768;18.262;2023-05-21T03:14:34;23.40;;;15.02;;
59468;SDS011;45277;52.768;18.262;2023-05-21T03:16:05;20.73;;;14.57;;
59468;SDS011;45277;52.768;18.262;2023-05-21T03:17:37;24.50;;;15.32;;
59468;SDS011;45277;52.768;18.262;2023-05-21T03:19:09;20.42;;;15.38;;
59468;SDS011;45277;52.768;18.262;2023-05-21T03:20:41;21.15;;;14.98;;
59468;SDS011;45277;52.768;18.262;2023-05-21T03:22:15;22.92;;;14.93;;
59468;SDS011;45277;52.768;18.262;2023-05-21T03:23:47;22.45;;;14.05;;
59468;SDS011;45277;52.768;18.262;2023-05-21T03:25:19;23.55;;;14.40;;
59468;SDS011;45277;52.768;18.262;2023-05-21T03:26:51;27.67;;;14.63;;
59468;SDS011;45277;52.768;18.262;2023-05-21T03:28:23;22.35;;;14.13;;
59468;SDS011;45277;52.768;18.262;2023-05-21T03:29:54;18.00;;;13.70;;
59468;SDS011;45277;52.768;18.262;2023-05-21T03:31:25;19.33;;;13.30;;
59468;SDS011;45277;52.768;18.262;2023-05-21T03:32:57;18.58;;;12.75;;
59468;SDS011;45277;52.768;18.262;2023-05-21T03:34:29;19.02;;;12.77;;
59468;SDS011;45277;52.768;18.262;2023-05-21T03:36:00;18.75;;;12.50;;
59468;SDS011;45277;52.768;18.262;2023-05-21T03:37:32;14.13;;;12.27;;
59468;SDS011;45277;52.768;18.262;2023-05-21T03:39:03;16.73;;;12.40;;
59468;SDS011;45277;52.768;18.262;2023-05-21T03:40:35;17.67;;;12.63;;
59468;SDS011;45277;52.768;18.262;2023-05-21T03:42:06;14.75;;;11.48;;
59468;SDS011;45277;52.768;18.262;2023-05-21T03:43:38;15.82;;;11.18;;
59468;SDS011;45277;52.768;18.262;2023-05-21T03:45:09;16.10;;;11.52;;
59468;SDS011;45277;52.768;18.262;2023-05-21T03:46:41;16.15;;;10.93;;
59468;SDS011;45277;52.768;18.262;2023-05-21T03:48:14;20.63;;;11.60;;
59468;SDS011;45277;52.768;18.262;2023-05-21T03:49:46;14.45;;;10.95;;
59468;SDS011;45277;52.768;18.262;2023-05-21T03:51:17;16.05;;;11.18;;
59468;SDS011;45277;52.768;18.262;2023-05-21T03:52:50;17.55;;;10.77;;
59468;SDS011;45277;52.768;18.262;2023-05-21T03:54:21;13.95;;;10.55;;
59468;SDS011;45277;52.768;18.262;2023-05-21T03:55:52;19.85;;;11.35;;
59468;SDS011;45277;52.768;18.262;2023-05-21T03:57:25;20.05;;;11.63;;
59468;SDS011;45277;52.768;18.262;2023-05-21T03:58:56;16.25;;;10.70;;
59468;SDS011;45277;52.768;18.262;2023-05-21T04:00:27;13.73;;;10.02;;
59468;SDS011;45277;52.768;18.262;2023-05-21T04:01:59;13.85;;;10.35;;
59468;SDS011;45277;52.768;18.262;2023-05-21T04:03:30;16.42;;;10.77;;
59468;SDS011;45277;52.768;18.262;2023-05-21T04:05:04;21.10;;;11.52;;
59468;SDS011;45277;52.768;18.262;2023-05-21T04:06:36;17.85;;;11.45;;
59468;SDS011;45277;52.768;18.262;2023-05-21T04:08:08;18.08;;;11.43;;
59468;SDS011;45277;52.768;18.262;2023-05-21T04:09:40;17.55;;;11.65;;
59468;SDS011;45277;52.768;18.262;2023-05-21T04:11:12;15.73;;;11.27;;
59468;SDS011;45277;52.768;18.262;2023-05-21T04:12:43;17.02;;;12.75;;
59468;SDS011;45277;52.768;18.262;2023-05-21T04:14:14;18.00;;;11.82;;
59468;SDS011;45277;52.768;18.262;2023-05-21T04:15:46;16.52;;;11.98;;
59468;SDS011;45277;52.768;18.262;2023-05-21T04:17:18;16.42;;;12.15;;
59468;SDS011;45277;52.768;18.262;2023-05-21T04:18:50;18.80;;;12.52;;
59468;SDS011;45277;52.768;18.262;2023-05-21T04:20:22;17.60;;;12.02;;
59468;SDS011;45277;52.768;18.262;2023-05-21T04:21:53;19.95;;;12.57;;
59468;SDS011;45277;52.768;18.262;2023-05-21T04:23:24;17.70;;;11.77;;
59468;SDS011;45277;52.768;18.262;2023-05-21T04:24:56;16.38;;;11.43;;
59468;SDS011;45277;52.768;18.262;2023-05-21T04:26:29;16.00;;;10.93;;
59468;SDS011;45277;52.768;18.262;2023-05-21T04:28:03;17.20;;;10.98;;
59468;SDS011;45277;52.768;18.262;2023-05-21T04:29:35;17.38;;;11.63;;
59468;SDS011;45277;52.768;18.262;2023-05-21T04:31:07;16.55;;;11.00;;
59468;SDS011;45277;52.768;18.262;2023-05-21T04:32:38;15.18;;;11.02;;
59468;SDS011;45277;52.768;18.262;2023-05-21T04:34:10;18.02;;;11.73;;
59468;SDS011;45277;52.768;18.262;2023-05-21T04:35:41;19.80;;;11.25;;
59468;SDS011;45277;52.768;18.262;2023-05-21T04:37:14;15.27;;;10.93;;
59468;SDS011;45277;52.768;18.262;2023-05-21T04:38:47;18.70;;;11.80;;
59468;SDS011;45277;52.768;18.262;2023-05-21T04:40:19;17.83;;;11.13;;
59468;SDS011;45277;52.768;18.262;2023-05-21T04:41:53;17.17;;;11.32;;
59468;SDS011;45277;52.768;18.262;2023-05-21T04:43:26;17.45;;;11.25;;
59468;SDS011;45277;52.768;18.262;2023-05-21T04:44:57;16.23;;;11.68;;
59468;SDS011;45277;52.768;18.262;2023-05-21T04:46:28;17.23;;;11.23;;
59468;SDS011;45277;52.768;18.262;2023-05-21T04:48:00;17.35;;;10.93;;
59468;SDS011;45277;52.768;18.262;2023-05-21T04:49:32;18.00;;;10.95;;
59468;SDS011;45277;52.768;18.262;2023-05-21T04:51:04;16.70;;;10.45;;
59468;SDS011;45277;52.768;18.262;2023-05-21T04:52:38;14.07;;;10.65;;
59468;SDS011;45277;52.768;18.262;2023-05-21T04:54:09;17.02;;;9.85;;
59468;SDS011;45277;52.768;18.262;2023-05-21T04:55:41;14.02;;;10.23;;
59468;SDS011;45277;52.768;18.262;2023-05-21T04:57:13;19.10;;;10.68;;
59468;SDS011;45277;52.768;18.262;2023-05-21T04:58:44;16.08;;;10.43;;
59468;SDS011;45277;52.768;18.262;2023-05-21T05:00:17;16.70;;;11.65;;
59468;SDS011;45277;52.768;18.262;2023-05-21T05:01:49;19.45;;;11.52;;
59468;SDS011;45277;52.768;18.262;2023-05-21T05:03:20;23.27;;;11.73;;
59468;SDS011;45277;52.768;18.262;2023-05-21T05:04:51;21.05;;;10.50;;
59468;SDS011;45277;52.768;18.262;2023-05-21T05:06:23;21.35;;;10.30;;
59468;SDS011;45277;52.768;18.262;2023-05-21T05:07:55;15.23;;;9.93;;
59468;SDS011;45277;52.768;18.262;2023-05-21T05:09:27;14.55;;;9.90;;
59468;SDS011;45277;52.768;18.262;2023-05-21T05:11:00;17.92;;;9.93;;
59468;SDS011;45277;52.768;18.262;2023-05-21T05:12:32;13.55;;;9.68;;
59468;SDS011;45277;52.768;18.262;2023-05-21T05:14:03;13.45;;;9.68;;
59468;SDS011;45277;52.768;18.262;2023-05-21T05:15:35;13.45;;;10.02;;
59468;SDS011;45277;52.768;18.262;2023-05-21T05:17:06;15.55;;;9.73;;
59468;SDS011;45277;52.768;18.262;2023-05-21T05:18:39;14.20;;;9.07;;
59468;SDS011;45277;52.768;18.262;2023-05-21T05:20:11;14.43;;;10.05;;
59468;SDS011;45277;52.768;18.262;2023-05-21T05:21:42;13.43;;;9.80;;
59468;SDS011;45277;52.768;18.262;2023-05-21T05:23:13;16.00;;;10.70;;
59468;SDS011;45277;52.768;18.262;2023-05-21T05:24:45;13.52;;;9.70;;
59468;SDS011;45277;52.768;18.262;2023-05-21T05:26:16;13.10;;;8.90;;
59468;SDS011;45277;52.768;18.262;2023-05-21T05:27:47;13.35;;;9.30;;
59468;SDS011;45277;52.768;18.262;2023-05-21T05:29:19;15.20;;;8.75;;
59468;SDS011;45277;52.768;18.262;2023-05-21T05:30:51;13.02;;;9.10;;
59468;SDS011;45277;52.768;18.262;2023-05-21T05:32:22;12.98;;;8.88;;
59468;SDS011;45277;52.768;18.262;2023-05-21T05:33:54;14.00;;;9.27;;
59468;SDS011;45277;52.768;18.262;2023-05-21T05:35:25;13.30;;;8.70;;
59468;SDS011;45277;52.768;18.262;2023-05-21T05:36:56;12.32;;;8.52;;
59468;SDS011;45277;52.768;18.262;2023-05-21T05:38:28;14.10;;;9.35;;
59468;SDS011;45277;52.768;18.262;2023-05-21T05:40:00;12.90;;;8.27;;
59468;SDS011;45277;52.768;18.262;2023-05-21T05:41:31;12.90;;;8.15;;
59468;SDS011;45277;52.768;18.262;2023-05-21T05:43:03;13.25;;;8.35;;
59468;SDS011;45277;52.768;18.262;2023-05-21T05:44:34;13.35;;;8.73;;
59468;SDS011;45277;52.768;18.262;2023-05-21T05:46:06;11.32;;;8.30;;
59468;SDS011;45277;52.768;18.262;2023-05-21T05:47:37;12.25;;;8.43;;
59468;SDS011;45277;52.768;18.262;2023-05-21T05:49:09;11.30;;;8.13;;
59468;SDS011;45277;52.768;18.262;2023-05-21T05:50:40;11.80;;;8.65;;
59468;SDS011;45277;52.768;18.262;2023-05-21T05:52:12;11.00;;;7.80;;
59468;SDS011;45277;52.768;18.262;2023-05-21T05:53:43;14.95;;;7.93;;
59468;SDS011;45277;52.768;18.262;2023-05-21T05:55:15;13.00;;;8.13;;
59468;SDS011;45277;52.768;18.262;2023-05-21T05:56:46;10.00;;;8.15;;
59468;SDS011;45277;52.768;18.262;2023-05-21T05:58:18;13.82;;;8.07;;
59468;SDS011;45277;52.768;18.262;2023-05-21T05:59:49;10.18;;;7.28;;
59468;SDS011;45277;52.768;18.262;2023-05-21T06:01:21;10.63;;;7.63;;
59468;SDS011;45277;52.768;18.262;2023-05-21T06:02:54;10.45;;;7.57;;
59468;SDS011;45277;52.768;18.262;2023-05-21T06:04:25;10.05;;;7.40;;
59468;SDS011;45277;52.768;18.262;2023-05-21T06:05:59;11.63;;;7.95;;
59468;SDS011;45277;52.768;18.262;2023-05-21T06:07:31;9.57;;;7.63;;
59468;SDS011;45277;52.768;18.262;2023-05-21T06:09:02;11.98;;;7.57;;
59468;SDS011;45277;52.768;18.262;2023-05-21T06:10:34;10.13;;;7.57;;
59468;SDS011;45277;52.768;18.262;2023-05-21T06:12:05;8.70;;;6.82;;
59468;SDS011;45277;52.768;18.262;2023-05-21T06:13:37;10.45;;;6.45;;
59468;SDS011;45277;52.768;18.262;2023-05-21T06:15:09;12.00;;;7.22;;
59468;SDS011;45277;52.768;18.262;2023-05-21T06:16:40;11.85;;;6.70;;
59468;SDS011;45277;52.768;18.262;2023-05-21T06:18:12;13.75;;;7.00;;
59468;SDS011;45277;52.768;18.262;2023-05-21T06:19:44;13.02;;;7.68;;
59468;SDS011;45277;52.768;18.262;2023-05-21T06:21:15;10.23;;;6.40;;
59468;SDS011;45277;52.768;18.262;2023-05-21T06:22:46;10.98;;;6.22;;
59468;SDS011;45277;52.768;18.262;2023-05-21T06:24:18;8.80;;;6.18;;
59468;SDS011;45277;52.768;18.262;2023-05-21T06:25:50;11.45;;;6.22;;
59468;SDS011;45277;52.768;18.262;2023-05-21T06:27:21;7.70;;;5.95;;
59468;SDS011;45277;52.768;18.262;2023-05-21T06:28:53;17.35;;;6.63;;
59468;SDS011;45277;52.768;18.262;2023-05-21T06:30:25;11.98;;;6.00;;
59468;SDS011;45277;52.768;18.262;2023-05-21T06:31:56;11.30;;;6.57;;
59468;SDS011;45277;52.768;18.262;2023-05-21T06:33:28;8.43;;;5.85;;
59468;SDS011;45277;52.768;18.262;2023-05-21T06:34:59;7.43;;;6.25;;
59468;SDS011;45277;52.768;18.262;2023-05-21T06:36:31;10.82;;;5.93;;
59468;SDS011;45277;52.768;18.262;2023-05-21T06:38:02;12.00;;;5.55;;
59468;SDS011;45277;52.768;18.262;2023-05-21T06:39:33;7.60;;;5.63;;
59468;SDS011;45277;52.768;18.262;2023-05-21T06:41:05;14.85;;;5.70;;
59468;SDS011;45277;52.768;18.262;2023-05-21T06:42:37;6.88;;;5.20;;
59468;SDS011;45277;52.768;18.262;2023-05-21T06:44:08;6.80;;;5.28;;
59468;SDS011;45277;52.768;18.262;2023-05-21T06:45:40;7.35;;;5.50;;
59468;SDS011;45277;52.768;18.262;2023-05-21T06:47:12;11.63;;;5.88;;
59468;SDS011;45277;52.768;18.262;2023-05-21T06:48:43;7.85;;;5.47;;
59468;SDS011;45277;52.768;18.262;2023-05-21T06:50:15;10.95;;;5.30;;
59468;SDS011;45277;52.768;18.262;2023-05-21T06:51:47;7.68;;;5.38;;
59468;SDS011;45277;52.768;18.262;2023-05-21T06:53:18;8.35;;;5.55;;
59468;SDS011;45277;52.768;18.262;2023-05-21T06:54:50;7.47;;;5.65;;
59468;SDS011;45277;52.768;18.262;2023-05-21T06:56:21;8.25;;;5.80;;
59468;SDS011;45277;52.768;18.262;2023-05-21T06:57:53;8.43;;;5.47;;
59468;SDS011;45277;52.768;18.262;2023-05-21T06:59:24;7.30;;;5.35;;
59468;SDS011;45277;52.768;18.262;2023-05-21T07:00:56;6.95;;;5.35;;
59468;SDS011;45277;52.768;18.262;2023-05-21T07:02:28;9.32;;;5.35;;
59468;SDS011;45277;52.768;18.262;2023-05-21T07:03:59;8.65;;;6.00;;
59468;SDS011;45277;52.768;18.262;2023-05-21T07:05:31;7.05;;;5.70;;
59468;SDS011;45277;52.768;18.262;2023-05-21T07:07:02;7.10;;;5.30;;
59468;SDS011;45277;52.768;18.262;2023-05-21T07:08:34;8.55;;;5.93;;
59468;SDS011;45277;52.768;18.262;2023-05-21T07:10:06;8.88;;;5.85;;
59468;SDS011;45277;52.768;18.262;2023-05-21T07:11:38;8.32;;;5.57;;
59468;SDS011;45277;52.768;18.262;2023-05-21T07:13:10;32.65;;;6.07;;
59468;SDS011;45277;52.768;18.262;2023-05-21T07:14:42;15.57;;;5.28;;
59468;SDS011;45277;52.768;18.262;2023-05-21T07:16:13;8.85;;;5.50;;
59468;SDS011;45277;52.768;18.262;2023-05-21T07:17:47;7.97;;;5.15;;
59468;SDS011;45277;52.768;18.262;2023-05-21T07:19:18;9.23;;;5.65;;
59468;SDS011;45277;52.768;18.262;2023-05-21T07:20:49;9.75;;;5.15;;
59468;SDS011;45277;52.768;18.262;2023-05-21T07:22:21;8.38;;;4.88;;
59468;SDS011;45277;52.768;18.262;2023-05-21T07:23:53;9.52;;;4.90;;
59468;SDS011;45277;52.768;18.262;2023-05-21T07:25:24;9.73;;;4.68;;
59468;SDS011;45277;52.768;18.262;2023-05-21T07:26:55;6.50;;;4.57;;
59468;SDS011;45277;52.768;18.262;2023-05-21T07:28:27;8.88;;;4.80;;
59468;SDS011;45277;52.768;18.262;2023-05-21T07:29:58;6.60;;;4.93;;
59468;SDS011;45277;52.768;18.262;2023-05-21T07:31:30;8.85;;;5.07;;
59468;SDS011;45277;52.768;18.262;2023-05-21T07:33:01;8.45;;;4.78;;
59468;SDS011;45277;52.768;18.262;2023-05-21T07:34:34;7.30;;;4.50;;
59468;SDS011;45277;52.768;18.262;2023-05-21T07:36:06;5.53;;;4.57;;
59468;SDS011;45277;52.768;18.262;2023-05-21T07:37:37;5.57;;;4.53;;
59468;SDS011;45277;52.768;18.262;2023-05-21T07:39:09;7.78;;;4.50;;
59468;SDS011;45277;52.768;18.262;2023-05-21T07:40:41;8.15;;;4.40;;
59468;SDS011;45277;52.768;18.262;2023-05-21T07:42:12;7.18;;;4.10;;
59468;SDS011;45277;52.768;18.262;2023-05-21T07:43:44;6.57;;;4.22;;
59468;SDS011;45277;52.768;18.262;2023-05-21T07:45:15;8.55;;;4.60;;
59468;SDS011;45277;52.768;18.262;2023-05-21T07:46:47;6.32;;;4.07;;
59468;SDS011;45277;52.768;18.262;2023-05-21T07:48:18;6.03;;;4.38;;
59468;SDS011;45277;52.768;18.262;2023-05-21T07:49:50;9.38;;;4.50;;
59468;SDS011;45277;52.768;18.262;2023-05-21T07:51:21;6.80;;;4.18;;
59468;SDS011;45277;52.768;18.262;2023-05-21T07:52:53;7.28;;;4.05;;
59468;SDS011;45277;52.768;18.262;2023-05-21T07:54:24;7.47;;;4.28;;
59468;SDS011;45277;52.768;18.262;2023-05-21T07:55:56;7.07;;;4.10;;
59468;SDS011;45277;52.768;18.262;2023-05-21T07:57:29;7.72;;;4.22;;
59468;SDS011;45277;52.768;18.262;2023-05-21T07:59:00;6.03;;;3.70;;
59468;SDS011;45277;52.768;18.262;2023-05-21T08:00:36;14.35;;;4.10;;
59468;SDS011;45277;52.768;18.262;2023-05-21T08:02:13;7.32;;;3.40;;
59468;SDS011;45277;52.768;18.262;2023-05-21T08:03:45;5.50;;;3.55;;
59468;SDS011;45277;52.768;18.262;2023-05-21T08:05:16;6.78;;;3.72;;
59468;SDS011;45277;52.768;18.262;2023-05-21T08:06:48;6.28;;;3.55;;
59468;SDS011;45277;52.768;18.262;2023-05-21T08:08:20;8.23;;;3.60;;
59468;SDS011;45277;52.768;18.262;2023-05-21T08:09:52;8.75;;;3.50;;
59468;SDS011;45277;52.768;18.262;2023-05-21T08:11:23;5.93;;;3.50;;
59468;SDS011;45277;52.768;18.262;2023-05-21T08:12:56;5.57;;;3.38;;
59468;SDS011;45277;52.768;18.262;2023-05-21T08:14:28;4.57;;;3.50;;
59468;SDS011;45277;52.768;18.262;2023-05-21T08:15:59;7.95;;;3.45;;
59468;SDS011;45277;52.768;18.262;2023-05-21T08:17:31;4.97;;;3.35;;
59468;SDS011;45277;52.768;18.262;2023-05-21T08:19:03;3.97;;;3.10;;
59468;SDS011;45277;52.768;18.262;2023-05-21T08:20:34;6.55;;;3.30;;
59468;SDS011;45277;52.768;18.262;2023-05-21T08:22:06;7.15;;;3.35;;
59468;SDS011;45277;52.768;18.262;2023-05-21T08:23:38;5.60;;;3.45;;
59468;SDS011;45277;52.768;18.262;2023-05-21T08:25:10;8.23;;;3.28;;
59468;SDS011;45277;52.768;18.262;2023-05-21T08:26:42;5.35;;;3.20;;
59468;SDS011;45277;52.768;18.262;2023-05-21T08:28:15;4.03;;;3.45;;
59468;SDS011;45277;52.768;18.262;2023-05-21T08:29:46;4.65;;;3.03;;
59468;SDS011;45277;52.768;18.262;2023-05-21T08:31:17;4.82;;;3.30;;
59468;SDS011;45277;52.768;18.262;2023-05-21T08:32:49;12.52;;;3.25;;
59468;SDS011;45277;52.768;18.262;2023-05-21T08:34:21;5.13;;;3.40;;
59468;SDS011;45277;52.768;18.262;2023-05-21T08:35:53;3.30;;;2.75;;
59468;SDS011;45277;52.768;18.262;2023-05-21T08:37:25;6.97;;;3.25;;
59468;SDS011;45277;52.768;18.262;2023-05-21T08:38:56;6.50;;;3.00;;
59468;SDS011;45277;52.768;18.262;2023-05-21T08:40:28;4.93;;;2.80;;
59468;SDS011;45277;52.768;18.262;2023-05-21T08:42:07;3.85;;;2.78;;
59468;SDS011;45277;52.768;18.262;2023-05-21T08:43:45;3.20;;;2.90;;
59468;SDS011;45277;52.768;18.262;2023-05-21T08:45:21;3.30;;;2.80;;
59468;SDS011;45277;52.768;18.262;2023-05-21T08:46:53;7.70;;;3.10;;
59468;SDS011;45277;52.768;18.262;2023-05-21T08:48:28;7.00;;;2.67;;
59468;SDS011;45277;52.768;18.262;2023-05-21T08:50:04;6.88;;;2.70;;
59468;SDS011;45277;52.768;18.262;2023-05-21T08:51:39;3.90;;;2.90;;
59468;SDS011;45277;52.768;18.262;2023-05-21T08:53:11;8.15;;;2.90;;
59468;SDS011;45277;52.768;18.262;2023-05-21T08:54:43;5.80;;;2.67;;
59468;SDS011;45277;52.768;18.262;2023-05-21T08:56:16;4.45;;;2.55;;
59468;SDS011;45277;52.768;18.262;2023-05-21T08:57:48;7.38;;;2.60;;
59468;SDS011;45277;52.768;18.262;2023-05-21T08:59:20;24.38;;;2.90;;